createdAt,value
2019-04-21T00:00:13.231Z,8.40
2019-04-21T00:02:42.740Z,8.30
2019-04-21T00:05:35.157Z,8.30
2019-04-21T00:08:01.231Z,8.20
2019-04-21T00:10:33.484Z,8.20
2019-04-21T00:12:54.767Z,10.20
2019-04-21T00:15:18.151Z,8.20
2019-04-21T00:17:37.020Z,8.20
2019-04-21T00:20:19.376Z,8.20
2019-04-21T00:22:47.765Z,8.20
2019-04-21T00:25:26.474Z,8.20
2019-04-21T00:27:51.007Z,8.30
2019-04-21T00:30:30.715Z,8.30
2019-04-21T00:32:50.172Z,8.40
2019-04-21T00:35:13.175Z,8.50
2019-04-21T00:37:53.183Z,8.50
2019-04-21T00:40:31.980Z,8.40
2019-04-21T00:42:55.625Z,8.40
2019-04-21T00:45:22.263Z,8.20
2019-04-21T00:48:00.909Z,8.10
2019-04-21T00:50:38.014Z,8.00
2019-04-21T00:53:20.350Z,8.00
2019-04-21T00:55:56.181Z,7.80
2019-04-21T00:58:28.376Z,7.80
2019-04-21T01:00:57.082Z,7.90
2019-04-21T01:03:26.388Z,7.90
2019-04-21T01:06:14.359Z,7.80
2019-04-21T01:08:19.859Z,7.80
2019-04-21T01:10:43.596Z,7.70
2019-04-21T01:13:27.373Z,7.60
2019-04-21T01:15:52.819Z,7.60
2019-04-21T01:18:20.717Z,7.50
2019-04-21T01:20:30.181Z,7.40
2019-04-21T01:22:58.128Z,7.40
2019-04-21T01:25:32.157Z,7.30
2019-04-21T01:28:16.986Z,7.30
2019-04-21T01:30:44.834Z,7.30
2019-04-21T01:33:12.438Z,7.30
2019-04-21T01:35:44.107Z,7.20
2019-04-21T01:38:14.252Z,7.10
2019-04-21T01:40:51.479Z,7.00
2019-04-21T01:43:17.606Z,7.00
2019-04-21T01:45:45.948Z,6.90
2019-04-21T01:48:12.584Z,6.90
2019-04-21T01:50:42.439Z,6.90
2019-04-21T01:53:34.775Z,6.90
2019-04-21T01:55:58.190Z,6.80
2019-04-21T01:58:29.438Z,6.80
2019-04-21T02:01:02.060Z,6.70
2019-04-21T02:06:12.534Z,6.60
2019-04-21T02:08:34.546Z,6.60
2019-04-21T02:11:12.625Z,6.60
2019-04-21T02:13:35.358Z,6.50
2019-04-21T02:16:06.862Z,6.50
2019-04-21T02:18:35.015Z,6.40
2019-04-21T02:20:52.835Z,6.40
2019-04-21T02:23:38.213Z,6.40
2019-04-21T02:26:03.264Z,6.30
2019-04-21T02:28:42.787Z,6.30
2019-04-21T02:31:22.599Z,6.10
2019-04-21T02:33:50.384Z,6.10
2019-04-21T02:36:22.774Z,6.10
2019-04-21T02:38:52.969Z,6.10
2019-04-21T02:41:09.457Z,6.10
2019-04-21T02:43:50.105Z,6.00
2019-04-21T02:46:12.999Z,6.10
2019-04-21T02:48:43.561Z,6.00
2019-04-21T02:51:13.164Z,6.00
2019-04-21T02:56:10.582Z,5.90
2019-04-21T02:58:53.169Z,5.90
2019-04-21T03:01:29.150Z,5.90
2019-04-21T03:06:47.298Z,5.70
2019-04-21T03:09:12.898Z,5.60
2019-04-21T03:11:45.526Z,5.50
2019-04-21T03:14:25.141Z,5.50
2019-04-21T03:16:40.557Z,5.40
2019-04-21T03:19:06.870Z,5.30
2019-04-21T03:21:45.677Z,5.30
2019-04-21T03:26:36.589Z,5.10
2019-04-21T03:29:05.713Z,5.10
2019-04-21T03:36:47.661Z,5.00
2019-04-21T03:39:01.311Z,5.10
2019-04-21T03:41:45.445Z,5.00
2019-04-21T03:44:09.419Z,4.90
2019-04-21T03:46:32.992Z,4.80
2019-04-21T03:49:04.902Z,4.80
2019-04-21T03:54:00.582Z,4.80
2019-04-21T04:01:25.928Z,4.60
2019-04-21T04:09:33.203Z,4.40
2019-04-21T04:11:50.886Z,4.40
2019-04-21T04:14:38.819Z,4.40
2019-04-21T04:16:57.136Z,4.40
2019-04-21T04:19:18.645Z,4.40
2019-04-21T04:21:57.594Z,4.40
2019-04-21T04:24:22.351Z,4.40
2019-04-21T04:26:47.507Z,4.40
2019-04-21T04:29:19.261Z,4.40
2019-04-21T04:31:42.726Z,4.40
2019-04-21T04:34:22.811Z,4.30
2019-04-21T04:36:58.508Z,4.30
2019-04-21T04:46:57.696Z,4.30
2019-04-21T04:49:40.464Z,4.30
2019-04-21T04:54:31.670Z,4.30
2019-04-21T04:56:58.949Z,4.30
2019-04-21T04:59:33.718Z,4.40
2019-04-21T05:02:00.279Z,4.40
2019-04-21T05:04:30.697Z,4.50
2019-04-21T05:09:15.120Z,4.40
2019-04-21T05:11:50.019Z,4.50
2019-04-21T05:14:18.323Z,4.60
2019-04-21T05:16:46.762Z,4.60
2019-04-21T05:21:55.288Z,4.80
2019-04-21T05:24:03.186Z,4.90
2019-04-21T05:26:29.396Z,5.10
2019-04-21T05:28:55.500Z,5.20
2019-04-21T05:31:45.133Z,5.40
2019-04-21T05:34:09.508Z,5.50
2019-04-21T05:36:52.403Z,5.70
2019-04-21T05:39:18.813Z,5.80
2019-04-21T05:41:38.656Z,6.00
2019-04-21T05:44:31.257Z,6.10
2019-04-21T05:47:01.152Z,6.20
2019-04-21T05:49:34.135Z,6.40
2019-04-21T05:52:04.088Z,6.50
2019-04-21T05:54:44.292Z,6.70
2019-04-21T05:57:08.665Z,6.80
2019-04-21T05:59:39.995Z,6.80
2019-04-21T06:02:20.908Z,7.00
2019-04-21T06:04:59.584Z,7.10
2019-04-21T06:07:17.771Z,7.20
2019-04-21T06:09:45.465Z,7.30
2019-04-21T06:12:10.070Z,7.50
2019-04-21T06:14:37.528Z,7.60
2019-04-21T06:17:11.000Z,7.70
2019-04-21T06:19:45.138Z,7.80
2019-04-21T06:22:06.085Z,7.90
2019-04-21T06:24:42.216Z,8.10
2019-04-21T06:27:11.597Z,8.20
2019-04-21T06:29:36.197Z,8.30
2019-04-21T06:32:29.463Z,8.40
2019-04-21T06:34:49.615Z,8.50
2019-04-21T06:37:32.701Z,8.50
2019-04-21T06:39:44.775Z,8.70
2019-04-21T06:42:07.321Z,8.80
2019-04-21T06:44:45.088Z,8.90
2019-04-21T06:47:05.973Z,9.10
2019-04-21T06:49:30.245Z,9.20
2019-04-21T06:52:07.560Z,9.30
2019-04-21T06:54:34.171Z,9.40
2019-04-21T06:57:00.175Z,9.60
2019-04-21T06:59:31.848Z,9.80
2019-04-21T07:04:51.505Z,10.20
2019-04-21T07:06:59.252Z,10.40
2019-04-21T07:09:31.116Z,10.50
2019-04-21T07:12:00.007Z,10.60
2019-04-21T07:14:43.764Z,10.70
2019-04-21T07:17:08.111Z,10.90
2019-04-21T07:19:35.235Z,11.10
2019-04-21T07:21:55.596Z,11.30
2019-04-21T07:24:31.527Z,11.50
2019-04-21T07:27:02.900Z,11.70
2019-04-21T07:32:04.532Z,12.10
2019-04-21T07:39:29.974Z,12.40
2019-04-21T07:41:57.383Z,12.50
2019-04-21T07:44:25.778Z,12.60
2019-04-21T07:46:49.030Z,12.80
2019-04-21T07:49:50.121Z,13.00
2019-04-21T07:52:37.763Z,13.20
2019-04-21T07:55:12.632Z,13.30
2019-04-21T07:57:27.610Z,13.50
2019-04-21T08:00:12.531Z,13.70
2019-04-21T08:02:29.316Z,13.90
2019-04-21T08:05:02.634Z,14.00
2019-04-21T08:07:32.340Z,14.20
2019-04-21T08:09:55.089Z,14.30
2019-04-21T08:12:21.911Z,14.50
2019-04-21T08:15:05.842Z,14.70
2019-04-21T08:17:26.672Z,14.90
2019-04-21T08:19:53.641Z,15.10
2019-04-21T08:22:25.897Z,15.20
2019-04-21T08:24:59.065Z,15.40
2019-04-21T08:27:25.731Z,15.40
2019-04-21T08:29:52.194Z,15.60
2019-04-21T08:32:26.648Z,15.70
2019-04-21T08:35:07.209Z,15.90
2019-04-21T08:37:27.566Z,16.10
2019-04-21T08:40:04.481Z,16.30
2019-04-21T08:42:25.364Z,16.40
2019-04-21T08:44:54.415Z,16.50
2019-04-21T08:47:25.661Z,16.70
2019-04-21T08:49:56.917Z,16.90
2019-04-21T08:52:36.250Z,17.00
2019-04-21T08:55:02.030Z,17.10
2019-04-21T08:57:30.140Z,17.30
2019-04-21T09:00:08.796Z,17.40
2019-04-21T09:02:40.276Z,17.60
2019-04-21T09:05:15.438Z,17.80
2019-04-21T09:07:42.994Z,18.00
2019-04-21T09:10:09.106Z,18.20
2019-04-21T09:12:34.659Z,18.40
2019-04-21T09:15:08.587Z,18.70
2019-04-21T09:17:28.436Z,18.80
2019-04-21T09:20:13.878Z,19.00
2019-04-21T09:22:37.723Z,19.10
2019-04-21T09:25:07.141Z,19.00
2019-04-21T09:27:33.678Z,19.00
2019-04-21T09:29:53.972Z,19.20
2019-04-21T09:32:22.125Z,19.30
2019-04-21T09:34:48.924Z,19.50
2019-04-21T09:37:30.522Z,19.70
2019-04-21T09:39:49.978Z,19.70
2019-04-21T09:42:18.438Z,19.80
2019-04-21T09:44:47.329Z,20.00
2019-04-21T09:47:19.006Z,20.20
2019-04-21T09:49:45.210Z,20.40
2019-04-21T09:52:20.096Z,20.50
2019-04-21T09:54:52.036Z,20.60
2019-04-21T09:57:22.841Z,20.80
2019-04-21T09:59:49.044Z,21.00
2019-04-21T10:02:19.240Z,21.10
2019-04-21T10:04:42.320Z,21.10
2019-04-21T10:07:23.385Z,21.20
2019-04-21T10:09:40.082Z,21.40
2019-04-21T10:12:07.990Z,21.60
2019-04-21T10:14:36.598Z,21.80
2019-04-21T10:17:24.075Z,21.80
2019-04-21T10:19:52.871Z,21.90
2019-04-21T10:22:21.113Z,22.00
2019-04-21T10:24:49.082Z,22.00
2019-04-21T10:27:17.212Z,22.20
2019-04-21T10:29:46.770Z,22.30
2019-04-21T10:32:15.484Z,22.40
2019-04-21T10:34:43.456Z,22.40
2019-04-21T10:37:11.385Z,22.40
2019-04-21T10:39:42.343Z,22.40
2019-04-21T10:42:11.281Z,22.50
2019-04-21T10:44:39.311Z,22.60
2019-04-21T10:47:07.259Z,22.60
2019-04-21T10:49:35.222Z,22.80
2019-04-21T10:52:04.793Z,22.70
2019-04-21T10:54:49.216Z,22.80
2019-04-21T10:57:04.250Z,22.90
2019-04-21T10:59:33.213Z,23.00
2019-04-21T11:02:03.159Z,23.00
2019-04-21T11:04:36.413Z,23.00
2019-04-21T11:07:10.610Z,22.90
2019-04-21T11:09:33.990Z,22.90
2019-04-21T11:12:02.114Z,23.00
2019-04-21T11:14:31.392Z,23.00
2019-04-21T11:17:00.532Z,23.00
2019-04-21T11:19:28.667Z,23.10
2019-04-21T11:21:56.907Z,23.30
2019-04-21T11:24:25.096Z,23.40
2019-04-21T11:26:53.816Z,23.30
2019-04-21T11:29:23.003Z,23.50
2019-04-21T11:31:51.397Z,23.70
2019-04-21T11:34:19.348Z,23.60
2019-04-21T11:36:48.066Z,23.60
2019-04-21T11:39:27.332Z,23.90
2019-04-21T11:41:47.883Z,24.00
2019-04-21T11:44:16.302Z,24.10
2019-04-21T11:46:44.566Z,24.20
2019-04-21T11:49:12.668Z,24.40
2019-04-21T11:51:40.810Z,24.20
2019-04-21T11:54:08.842Z,24.40
2019-04-21T11:56:37.034Z,24.30
2019-04-21T11:59:05.876Z,24.20
2019-04-21T12:01:33.949Z,24.10
2019-04-21T12:04:03.306Z,24.20
2019-04-21T12:06:37.753Z,24.40
2019-04-21T12:09:02.879Z,24.40
2019-04-21T12:11:31.467Z,24.40
2019-04-21T12:14:00.414Z,24.30
2019-04-21T12:16:28.753Z,24.30
2019-04-21T12:18:56.832Z,24.40
2019-04-21T12:21:25.497Z,24.40
2019-04-21T12:23:54.438Z,24.30
2019-04-21T12:26:22.351Z,24.40
2019-04-21T12:28:50.286Z,24.40
2019-04-21T12:31:36.211Z,24.60
2019-04-21T12:34:05.822Z,24.60
2019-04-21T12:36:33.964Z,24.80
2019-04-21T12:39:05.090Z,24.80
2019-04-21T12:41:32.776Z,24.60
2019-04-21T12:44:02.434Z,24.70
2019-04-21T12:46:31.756Z,24.90
2019-04-21T12:48:59.987Z,24.90
2019-04-21T12:51:28.069Z,25.00
2019-04-21T12:53:57.341Z,25.10
2019-04-21T12:56:25.440Z,25.20
2019-04-21T12:58:53.407Z,25.10
2019-04-21T13:01:21.321Z,25.40
2019-04-21T13:03:50.002Z,25.40
2019-04-21T13:06:19.210Z,25.40
2019-04-21T13:08:56.895Z,25.50
2019-04-21T13:11:17.116Z,25.50
2019-04-21T13:13:45.962Z,25.30
2019-04-21T13:16:14.119Z,25.40
2019-04-21T13:18:42.076Z,25.50
2019-04-21T13:21:10.014Z,25.60
2019-04-21T13:23:39.021Z,25.60
2019-04-21T13:26:08.250Z,24.90
2019-04-21T13:28:37.635Z,25.60
2019-04-21T13:31:06.478Z,25.60
2019-04-21T13:33:35.188Z,25.40
2019-04-21T13:36:04.816Z,25.40
2019-04-21T13:38:42.258Z,25.50
2019-04-21T13:41:27.316Z,25.50
2019-04-21T13:43:41.176Z,25.60
2019-04-21T13:46:10.023Z,25.80
2019-04-21T13:48:37.950Z,25.80
2019-04-21T13:51:07.056Z,25.80
2019-04-21T13:53:36.336Z,25.80
2019-04-21T13:56:04.793Z,26.10
2019-04-21T13:58:32.724Z,26.00
2019-04-21T14:01:00.791Z,26.00
2019-04-21T14:03:29.235Z,26.00
2019-04-21T14:05:58.219Z,26.20
2019-04-21T14:08:27.331Z,26.30
2019-04-21T14:10:55.636Z,26.30
2019-04-21T14:13:24.720Z,26.60
2019-04-21T14:15:53.757Z,26.70
2019-04-21T14:18:22.674Z,26.60
2019-04-21T14:20:51.250Z,26.70
2019-04-21T14:23:28.595Z,26.90
2019-04-21T14:25:50.079Z,27.10
2019-04-21T14:28:18.131Z,27.40
2019-04-21T14:30:46.184Z,27.60
2019-04-21T14:33:14.221Z,27.60
2019-04-21T14:35:43.073Z,27.50
2019-04-21T14:38:11.090Z,27.60
2019-04-21T14:40:39.030Z,28.00
2019-04-21T14:43:08.045Z,28.00
2019-04-21T14:45:38.782Z,28.40
2019-04-21T14:48:25.304Z,28.70
2019-04-21T14:51:06.968Z,28.70
2019-04-21T14:53:53.942Z,28.70
2019-04-21T14:56:21.942Z,28.90
2019-04-21T14:58:50.913Z,29.30
2019-04-21T15:01:19.824Z,29.60
2019-04-21T15:03:47.940Z,30.60
2019-04-21T15:06:15.869Z,31.30
2019-04-21T15:08:44.904Z,31.60
2019-04-21T15:11:14.009Z,31.30
2019-04-21T15:13:41.995Z,31.50
2019-04-21T15:16:11.037Z,31.40
2019-04-21T15:18:39.137Z,31.40
2019-04-21T15:21:07.796Z,31.00
2019-04-21T15:23:36.171Z,30.50
2019-04-21T15:26:04.238Z,30.40
2019-04-21T15:28:34.405Z,30.20
2019-04-21T15:31:02.875Z,30.20
2019-04-21T15:33:31.002Z,30.40
2019-04-21T15:35:58.919Z,30.90
2019-04-21T15:38:27.680Z,31.10
2019-04-21T15:41:00.445Z,31.90
2019-04-21T15:43:26.513Z,32.30
2019-04-21T15:45:54.852Z,32.50
2019-04-21T15:48:23.953Z,32.20
2019-04-21T15:50:51.991Z,32.10
2019-04-21T15:53:21.691Z,31.70
2019-04-21T15:55:54.963Z,31.10
2019-04-21T15:58:30.554Z,31.00
2019-04-21T16:01:03.157Z,31.30
2019-04-21T16:03:31.166Z,30.90
2019-04-21T16:05:59.457Z,30.90
2019-04-21T16:08:28.774Z,30.80
2019-04-21T16:11:00.270Z,30.30
2019-04-21T16:13:27.717Z,31.00
2019-04-21T16:15:56.769Z,31.30
2019-04-21T16:18:24.782Z,31.00
2019-04-21T16:20:53.706Z,31.20
2019-04-21T16:23:22.519Z,30.80
2019-04-21T16:25:50.826Z,30.50
2019-04-21T16:28:19.295Z,30.20
2019-04-21T16:30:48.700Z,29.50
2019-04-21T16:33:16.722Z,28.50
2019-04-21T16:35:44.775Z,27.40
2019-04-21T16:38:13.358Z,26.50
2019-04-21T16:40:48.891Z,25.90
2019-04-21T16:43:12.145Z,25.50
2019-04-21T16:45:41.165Z,25.30
2019-04-21T16:48:09.518Z,25.00
2019-04-21T16:50:37.543Z,24.90
2019-04-21T16:53:10.290Z,24.70
2019-04-21T16:55:41.370Z,24.70
2019-04-21T16:58:16.830Z,24.70
2019-04-21T17:00:57.531Z,24.70
2019-04-21T17:03:18.804Z,24.70
2019-04-21T17:05:48.127Z,24.80
2019-04-21T17:08:16.055Z,24.80
2019-04-21T17:10:56.938Z,24.70
2019-04-21T17:13:13.947Z,24.70
2019-04-21T17:15:54.486Z,24.50
2019-04-21T17:18:26.938Z,24.10
2019-04-21T17:20:47.375Z,23.60
2019-04-21T17:23:11.523Z,23.10
2019-04-21T17:25:39.510Z,22.70
2019-04-21T17:28:07.918Z,22.30
2019-04-21T17:30:36.707Z,21.90
2019-04-21T17:33:05.690Z,21.60
2019-04-21T17:35:35.149Z,21.30
2019-04-21T17:38:03.993Z,21.00
2019-04-21T17:40:33.793Z,20.80
2019-04-21T17:43:07.224Z,20.60
2019-04-21T17:45:31.376Z,20.40
2019-04-21T17:48:04.942Z,20.30
2019-04-21T17:50:31.597Z,20.00
2019-04-21T17:53:06.543Z,19.90
2019-04-21T17:56:05.096Z,19.70
2019-04-21T17:58:31.992Z,19.60
2019-04-21T18:01:21.669Z,19.40
2019-04-21T18:03:56.998Z,19.30
2019-04-21T18:06:07.511Z,19.10
2019-04-21T18:08:49.093Z,18.90
2019-04-21T18:11:06.023Z,18.80
2019-04-21T18:13:26.651Z,18.70
2019-04-21T18:16:08.051Z,18.70
2019-04-21T18:18:23.799Z,18.50
2019-04-21T18:20:54.980Z,18.40
2019-04-21T18:23:45.023Z,18.30
2019-04-21T18:26:09.764Z,18.00
2019-04-21T18:28:32.812Z,17.90
2019-04-21T18:31:05.126Z,17.80
2019-04-21T18:33:37.056Z,17.70
2019-04-21T18:36:06.535Z,17.50
2019-04-21T18:39:12.584Z,17.40
2019-04-21T18:41:23.555Z,17.20
2019-04-21T18:44:29.118Z,16.90
2019-04-21T18:46:56.778Z,16.80
2019-04-21T18:49:09.112Z,16.70
2019-04-21T18:52:04.002Z,16.60
2019-04-21T18:54:47.087Z,16.40
2019-04-21T18:57:08.194Z,16.30
2019-04-21T18:59:34.094Z,16.20
2019-04-21T19:02:04.237Z,16.10
2019-04-21T19:04:32.443Z,16.00
2019-04-21T19:07:11.139Z,17.60
2019-04-21T19:10:05.976Z,16.00
2019-04-21T19:12:16.749Z,15.90
2019-04-21T19:14:39.813Z,15.80
2019-04-21T19:22:09.014Z,15.50
2019-04-21T19:24:41.295Z,15.60
2019-04-21T19:29:45.513Z,15.40
2019-04-21T19:32:18.949Z,15.40
2019-04-21T19:34:26.817Z,15.30
2019-04-21T19:36:59.838Z,15.40
2019-04-21T19:39:34.965Z,15.30
2019-04-21T19:42:00.791Z,15.20
2019-04-21T19:44:38.202Z,15.10
2019-04-21T19:47:13.836Z,15.00
2019-04-21T19:49:40.038Z,15.00
2019-04-21T19:51:56.490Z,15.00
2019-04-21T19:54:25.208Z,14.90
2019-04-21T19:56:49.026Z,14.90
2019-04-21T19:59:23.841Z,14.80
2019-04-21T20:01:48.347Z,14.70
2019-04-21T20:04:16.752Z,14.50
2019-04-21T20:06:57.638Z,14.40
2019-04-21T20:09:32.446Z,14.30
2019-04-21T20:11:58.102Z,14.20
2019-04-21T20:14:51.003Z,14.20
2019-04-21T20:17:00.621Z,14.20
2019-04-21T20:19:17.484Z,14.20
2019-04-21T20:21:45.353Z,14.20
2019-04-21T20:24:16.978Z,14.20
2019-04-21T20:26:52.014Z,14.10
2019-04-21T20:29:31.316Z,14.00
2019-04-21T20:31:54.491Z,14.00
2019-04-21T20:34:34.259Z,14.00
2019-04-21T20:37:03.132Z,13.90
2019-04-21T20:39:17.774Z,13.70
2019-04-21T20:41:55.331Z,13.60
2019-04-21T20:44:24.778Z,13.50
2019-04-21T20:46:58.154Z,13.40
2019-04-21T20:49:19.051Z,13.40
2019-04-21T20:52:02.045Z,13.30
2019-04-21T20:54:26.000Z,13.20
2019-04-21T20:56:58.456Z,13.20
2019-04-21T20:59:23.847Z,13.20
2019-04-21T21:01:59.945Z,13.20
2019-04-21T21:04:19.197Z,13.20
2019-04-21T21:06:54.400Z,13.20
2019-04-21T21:09:18.244Z,13.20
2019-04-21T21:12:09.940Z,13.20
2019-04-21T21:14:26.568Z,13.20
2019-04-21T21:16:58.156Z,13.20
2019-04-21T21:19:33.342Z,13.10
2019-04-21T21:21:49.715Z,13.00
2019-04-21T21:24:20.551Z,13.00
2019-04-21T21:26:55.715Z,13.00
2019-04-21T21:29:22.830Z,13.00
2019-04-21T21:31:59.961Z,12.90
2019-04-21T21:34:44.447Z,12.90
2019-04-21T21:36:47.816Z,12.90
2019-04-21T21:39:15.936Z,12.90
2019-04-21T21:41:40.589Z,12.80
2019-04-21T21:44:07.304Z,12.70
2019-04-21T21:46:44.148Z,12.70
2019-04-21T21:49:07.599Z,12.70
2019-04-21T21:51:42.924Z,12.50
2019-04-21T21:54:00.926Z,12.40
2019-04-21T21:56:28.909Z,12.40
2019-04-21T21:58:57.133Z,12.30
2019-04-21T22:01:31.975Z,12.20
2019-04-21T22:04:04.907Z,12.20
2019-04-21T22:06:36.319Z,12.20
2019-04-21T22:08:54.484Z,12.10
2019-04-21T22:11:24.037Z,12.10
2019-04-21T22:13:58.444Z,12.10
2019-04-21T22:16:24.473Z,12.10
2019-04-21T22:19:08.020Z,12.10
2019-04-21T22:21:41.477Z,12.10
2019-04-21T22:23:57.670Z,12.10
2019-04-21T22:26:21.006Z,12.00
2019-04-21T22:28:49.686Z,12.00
2019-04-21T22:31:22.550Z,11.90
2019-04-21T22:33:50.337Z,11.90
2019-04-21T22:36:29.986Z,11.90
2019-04-21T22:39:07.433Z,11.90
2019-04-21T22:41:26.619Z,11.90
2019-04-21T22:43:49.340Z,11.80
2019-04-21T22:46:15.526Z,11.70
2019-04-21T22:48:46.501Z,11.70
2019-04-21T22:51:20.495Z,11.60
2019-04-21T22:53:47.254Z,11.60
2019-04-21T22:56:19.789Z,11.60
2019-04-21T22:58:44.005Z,11.60
2019-04-21T23:01:11.392Z,11.50
2019-04-21T23:03:46.752Z,11.50
2019-04-21T23:06:16.200Z,11.50
2019-04-21T23:08:42.381Z,11.40
2019-04-21T23:11:12.203Z,11.30
2019-04-21T23:13:38.680Z,11.20
2019-04-21T23:16:08.482Z,11.10
2019-04-21T23:18:50.273Z,11.00
2019-04-21T23:21:21.151Z,11.00
2019-04-21T23:23:59.568Z,11.00
2019-04-21T23:26:25.770Z,11.00
2019-04-21T23:29:00.354Z,11.00
2019-04-21T23:31:27.925Z,11.00
2019-04-21T23:33:34.660Z,11.00
2019-04-21T23:36:11.306Z,11.00
2019-04-21T23:38:39.945Z,11.00
2019-04-21T23:41:04.218Z,10.90
2019-04-21T23:43:33.087Z,10.90
2019-04-21T23:46:08.668Z,10.90
2019-04-21T23:48:44.289Z,10.80
2019-04-21T23:51:14.006Z,10.80
2019-04-21T23:53:29.627Z,10.80
2019-04-21T23:55:57.570Z,10.80
2019-04-21T23:58:27.937Z,10.70
